Time;durP1;ratioP1;P1;durP2;ratioP2;P2;SDS_P1;SDS_P2;PMS_P1;PMS_P2;Temp;Humidity;BMP_temperature;BMP_pressure;BME280_temperature;BME280_humidity;BME280_pressure;Samples;Min_cycle;Max_cycle;Signal;HPM_P1;HPM_P2
2023/10/19 00:00:19;;;;;;;3.83;2.23;;;13.80;73.90;;;;;;6362922;22;20163;-84
2023/10/19 00:02:54;;;;;;;1.97;1.63;;;13.80;74.10;;;;;;6362653;22;20209;-86
2023/10/19 00:05:26;;;;;;;2.63;1.90;;;13.80;74.20;;;;;;6366273;22;20521;-87
2023/10/19 00:07:57;;;;;;;1.87;1.17;;;13.70;74.10;;;;;;6363259;22;20566;-85
2023/10/19 00:10:30;;;;;;;0.70;0.60;;;13.70;74.40;;;;;;6364280;22;20598;-86
2023/10/19 00:13:00;;;;;;;1.60;1.37;;;13.70;74.40;;;;;;6363131;22;20175;-85
2023/10/19 00:15:32;;;;;;;1.73;1.63;;;13.70;74.40;;;;;;6365647;22;20167;-88
2023/10/19 00:18:13;;;;;;;2.60;1.40;;;13.60;74.40;;;;;;6365004;22;20164;-86
2023/10/19 00:20:51;;;;;;;1.47;0.97;;;13.60;74.30;;;;;;6367949;22;20196;-87
2023/10/19 00:23:31;;;;;;;2.80;1.87;;;13.60;74.40;;;;;;6365373;22;20563;-86
2023/10/19 00:26:08;;;;;;;1.47;1.37;;;13.60;74.40;;;;;;6365988;22;20544;-87
2023/10/19 00:28:38;;;;;;;0.93;0.93;;;13.50;74.40;;;;;;6369433;22;20183;-87
2023/10/19 00:31:08;;;;;;;2.70;1.47;;;13.50;74.40;;;;;;6368458;22;20617;-86
2023/10/19 00:33:38;;;;;;;2.33;1.33;;;13.50;74.80;;;;;;6368150;22;20167;-85
2023/10/19 00:36:09;;;;;;;1.20;1.10;;;13.50;74.80;;;;;;6367562;22;20535;-87
2023/10/19 00:38:41;;;;;;;1.40;1.30;;;13.50;74.70;;;;;;6368908;22;20377;-85
2023/10/19 00:41:19;;;;;;;2.00;1.17;;;13.50;74.70;;;;;;6366877;22;20170;-86
2023/10/19 00:43:50;;;;;;;1.47;1.37;;;13.50;74.70;;;;;;6366533;22;20167;-86
2023/10/19 00:46:31;;;;;;;2.03;1.43;;;13.50;74.70;;;;;;6365599;22;20395;-86
2023/10/19 00:49:05;;;;;;;2.27;1.90;;;13.50;74.80;;;;;;6364509;22;20194;-86
2023/10/19 00:51:50;;;;;;;1.07;1.00;;;13.50;74.80;;;;;;6365088;22;20171;-87
2023/10/19 00:54:31;;;;;;;2.30;0.80;;;13.50;74.80;;;;;;6364143;22;20202;-87
2023/10/19 00:57:10;;;;;;;4.10;1.17;;;13.50;74.80;;;;;;6365098;22;20197;-84
2023/10/19 00:59:43;;;;;;;2.47;2.33;;;13.50;75.00;;;;;;6367973;22;20160;-85
2023/10/19 01:02:28;;;;;;;5.10;1.40;;;13.50;75.30;;;;;;6363067;22;21007;-85
2023/10/19 01:05:00;;;;;;;4.00;1.90;;;13.40;75.10;;;;;;6363638;22;20170;-86
2023/10/19 01:07:30;;;;;;;0.70;0.70;;;13.40;75.20;;;;;;6364219;22;20608;-86
2023/10/19 01:10:03;;;;;;;1.43;1.33;;;13.40;75.20;;;;;;6365547;22;20221;-85
2023/10/19 01:12:38;;;;;;;2.33;1.83;;;13.30;75.10;;;;;;6367553;22;20155;-87
2023/10/19 01:15:14;;;;;;;1.67;1.40;;;13.30;75.10;;;;;;6366394;22;20563;-86
2023/10/19 01:17:45;;;;;;;2.40;2.20;;;13.30;75.40;;;;;;6365239;22;20166;-85
2023/10/19 01:20:19;;;;;;;3.27;1.37;;;13.30;75.40;;;;;;6364358;22;20538;-85
2023/10/19 01:23:20;;;;;;;1.00;0.90;;;13.20;75.30;;;;;;6362760;22;20164;-85
2023/10/19 01:25:59;;;;;;;1.57;1.47;;;13.20;75.20;;;;;;6365578;22;20607;-86
2023/10/19 01:28:42;;;;;;;1.87;1.47;;;13.20;75.20;;;;;;6366185;22;20187;-87
2023/10/19 01:31:15;;;;;;;1.97;1.30;;;13.20;75.20;;;;;;6366674;22;20239;-86
2023/10/19 01:33:45;;;;;;;1.07;1.07;;;13.20;75.20;;;;;;6361964;22;20681;-86
2023/10/19 01:36:14;;;;;;;1.43;1.10;;;13.10;75.20;;;;;;6365323;22;20225;-87
2023/10/19 01:38:47;;;;;;;2.87;1.50;;;13.20;75.30;;;;;;6363841;22;20247;-86
2023/10/19 01:41:18;;;;;;;5.50;2.03;;;13.10;75.30;;;;;;6365417;22;20163;-87
2023/10/19 01:43:53;;;;;;;1.33;1.23;;;13.10;75.30;;;;;;6366241;22;20617;-87
2023/10/19 01:46:24;;;;;;;1.97;1.73;;;13.10;75.50;;;;;;6365703;22;20179;-87
2023/10/19 01:48:57;;;;;;;1.00;1.00;;;13.10;75.60;;;;;;6366258;22;20201;-86
2023/10/19 01:51:26;;;;;;;19.97;1.97;;;13.10;76.30;;;;;;6367726;22;20148;-87
2023/10/19 01:53:57;;;;;;;0.90;0.90;;;13.10;75.40;;;;;;6365885;22;20241;-87
2023/10/19 01:56:24;;;;;;;2.47;1.53;;;13.10;75.40;;;;;;6367377;22;20231;-85
2023/10/19 01:58:54;;;;;;;3.97;2.93;;;13.10;75.30;;;;;;6364543;22;20189;-86
2023/10/19 02:01:28;;;;;;;1.10;1.00;;;13.10;75.40;;;;;;6364731;22;20499;-86
2023/10/19 02:04:01;;;;;;;2.00;1.80;;;13.10;75.40;;;;;;6362815;22;20190;-85
2023/10/19 02:06:35;;;;;;;1.43;1.33;;;13.00;75.30;;;;;;6365076;22;20184;-87
2023/10/19 02:09:16;;;;;;;2.83;1.33;;;13.00;75.30;;;;;;6361285;22;20197;-85
2023/10/19 02:11:46;;;;;;;1.60;1.50;;;13.00;75.20;;;;;;6365319;22;20164;-86
2023/10/19 02:14:18;;;;;;;3.63;1.10;;;13.00;75.40;;;;;;6366583;22;20183;-88
2023/10/19 02:16:50;;;;;;;1.90;1.60;;;13.00;75.70;;;;;;6364321;22;20220;-87
2023/10/19 02:19:22;;;;;;;3.00;2.53;;;13.00;75.60;;;;;;6367182;22;20220;-86
2023/10/19 02:21:53;;;;;;;1.67;1.37;;;13.00;75.60;;;;;;6367288;22;20602;-85
2023/10/19 02:24:23;;;;;;;3.13;1.77;;;13.00;75.60;;;;;;6366314;22;20212;-86
2023/10/19 02:26:53;;;;;;;5.03;2.00;;;13.00;75.60;;;;;;6366245;22;20171;-87
2023/10/19 02:29:23;;;;;;;1.27;1.17;;;12.90;75.50;;;;;;6368141;22;20230;-89
2023/10/19 02:31:50;;;;;;;0.70;0.70;;;12.90;75.50;;;;;;6367345;22;20246;-87
2023/10/19 02:34:20;;;;;;;1.83;1.33;;;12.90;75.50;;;;;;6366594;22;20530;-87
2023/10/19 02:36:54;;;;;;;1.27;1.20;;;12.90;75.50;;;;;;6363782;22;20691;-88
2023/10/19 02:39:28;;;;;;;1.27;0.80;;;12.90;75.50;;;;;;6366910;22;20195;-85
2023/10/19 02:42:01;;;;;;;3.03;1.47;;;12.90;75.60;;;;;;6362569;22;20620;-86
2023/10/19 02:44:30;;;;;;;2.03;1.83;;;12.90;76.00;;;;;;6363124;22;20597;-85
2023/10/19 02:46:58;;;;;;;1.00;0.90;;;12.80;75.90;;;;;;6363768;22;20504;-86
2023/10/19 02:49:30;;;;;;;4.63;1.67;;;12.90;75.90;;;;;;6365881;22;20710;-85
2023/10/19 02:52:03;;;;;;;2.53;1.33;;;12.80;76.10;;;;;;6362438;22;20203;-86
2023/10/19 02:54:34;;;;;;;4.00;2.60;;;12.80;76.10;;;;;;6364008;22;20183;-87
2023/10/19 02:57:06;;;;;;;1.40;1.30;;;12.80;75.90;;;;;;6364791;22;20175;-88
2023/10/19 02:59:38;;;;;;;1.70;0.97;;;12.80;75.90;;;;;;6364464;22;21016;-88
2023/10/19 03:02:15;;;;;;;1.03;1.03;;;12.80;76.00;;;;;;6361920;22;20509;-85
2023/10/19 03:04:45;;;;;;;0.97;0.97;;;12.80;76.00;;;;;;6364154;22;20242;-87
2023/10/19 03:07:15;;;;;;;1.07;1.07;;;12.80;75.90;;;;;;6362524;22;20242;-87
2023/10/19 03:09:49;;;;;;;1.00;1.00;;;12.80;75.90;;;;;;6365216;22;20291;-85
2023/10/19 03:12:19;;;;;;;1.30;1.20;;;12.90;75.90;;;;;;6366866;22;20164;-87
2023/10/19 03:14:49;;;;;;;3.73;2.40;;;12.90;76.10;;;;;;6366398;22;20180;-85
2023/10/19 03:17:16;;;;;;;3.27;2.63;;;12.80;76.10;;;;;;6365978;22;20167;-87
2023/10/19 03:19:45;;;;;;;1.30;1.20;;;12.80;76.10;;;;;;6365186;22;20174;-86
2023/10/19 03:22:14;;;;;;;2.23;1.37;;;12.80;76.20;;;;;;6367038;22;20167;-85
2023/10/19 03:24:45;;;;;;;4.33;1.73;;;12.80;76.20;;;;;;6364361;22;20168;-86
2023/10/19 03:27:17;;;;;;;1.30;1.13;;;12.80;76.20;;;;;;6365952;22;20160;-86
2023/10/19 03:29:48;;;;;;;1.77;1.23;;;12.80;76.10;;;;;;6337013;22;20230;-86
2023/10/19 03:32:18;;;;;;;2.07;1.90;;;12.80;76.10;;;;;;6366601;22;20164;-86
2023/10/19 03:34:55;;;;;;;2.13;1.97;;;12.80;75.90;;;;;;6365799;22;20170;-85
2023/10/19 03:37:29;;;;;;;2.47;2.27;;;12.80;75.80;;;;;;6365096;22;20628;-86
2023/10/19 03:40:02;;;;;;;6.47;1.47;;;12.80;76.60;;;;;;6366674;22;20168;-87
2023/10/19 03:42:32;;;;;;;2.13;1.70;;;12.80;75.80;;;;;;6367814;22;20532;-85
2023/10/19 03:45:08;;;;;;;1.67;1.07;;;12.70;75.80;;;;;;6365872;22;20638;-87
2023/10/19 03:47:38;;;;;;;2.23;1.17;;;12.80;75.80;;;;;;6367110;22;20238;-86
2023/10/19 03:50:08;;;;;;;1.93;1.53;;;12.80;75.80;;;;;;6367110;22;20188;-87
2023/10/19 03:52:38;;;;;;;5.70;1.37;;;12.70;75.70;;;;;;6365852;22;20835;-85
2023/10/19 03:55:16;;;;;;;1.73;1.40;;;12.70;75.70;;;;;;6364379;22;20720;-87
2023/10/19 03:57:50;;;;;;;2.57;1.40;;;12.70;75.70;;;;;;6366360;22;20643;-86
2023/10/19 04:00:24;;;;;;;1.53;1.43;;;12.70;75.70;;;;;;6365957;22;20243;-84
2023/10/19 04:02:55;;;;;;;2.60;1.47;;;12.60;75.70;;;;;;6339612;22;20168;-85
2023/10/19 04:05:26;;;;;;;1.20;1.10;;;12.70;75.80;;;;;;6364965;22;20164;-86
2023/10/19 04:07:57;;;;;;;2.80;2.37;;;12.60;75.90;;;;;;6364546;22;20209;-86
2023/10/19 04:10:44;;;;;;;4.57;3.10;;;12.60;75.90;;;;;;6366133;22;20187;-86
2023/10/19 04:13:14;;;;;;;1.27;1.00;;;12.60;76.00;;;;;;6367001;22;20198;-88
2023/10/19 04:15:42;;;;;;;2.57;2.00;;;12.50;75.90;;;;;;6363280;22;20183;-85
2023/10/19 04:18:12;;;;;;;2.20;1.70;;;12.50;76.00;;;;;;6366709;22;20168;-86
2023/10/19 04:20:55;;;;;;;1.67;1.57;;;12.50;76.00;;;;;;6365115;22;20171;-87
2023/10/19 04:23:28;;;;;;;0.77;0.77;;;12.50;76.00;;;;;;6364472;22;20243;-87
2023/10/19 04:25:58;;;;;;;1.17;1.13;;;12.50;76.10;;;;;;6364675;22;20160;-87
2023/10/19 04:28:38;;;;;;;2.13;1.97;;;12.50;76.10;;;;;;6366193;22;20167;-85
2023/10/19 04:31:07;;;;;;;2.13;2.03;;;12.50;76.20;;;;;;6363664;22;20159;-86
2023/10/19 04:33:37;;;;;;;7.10;1.83;;;12.50;76.30;;;;;;6363149;22;20222;-86
2023/10/19 04:36:11;;;;;;;1.47;1.37;;;12.50;76.20;;;;;;6362476;22;20258;-85
2023/10/19 04:38:40;;;;;;;2.73;2.37;;;12.50;76.10;;;;;;6363533;22;20168;-86
2023/10/19 04:41:11;;;;;;;2.40;2.20;;;12.50;76.10;;;;;;6362627;22;20470;-87
2023/10/19 04:43:43;;;;;;;2.53;1.43;;;12.50;76.10;;;;;;6363890;22;20562;-85
2023/10/19 04:46:12;;;;;;;1.80;1.20;;;12.50;76.10;;;;;;6364539;22;20168;-86
2023/10/19 04:48:42;;;;;;;3.77;1.83;;;12.50;76.10;;;;;;6364458;22;20250;-86
2023/10/19 04:51:12;;;;;;;2.10;1.90;;;12.40;76.10;;;;;;6364830;22;20182;-87
2023/10/19 04:53:42;;;;;;;2.73;2.13;;;12.50;76.20;;;;;;6362924;22;20415;-87
2023/10/19 04:56:14;;;;;;;1.93;1.80;;;12.50;76.10;;;;;;6363106;22;20175;-86
2023/10/19 04:58:43;;;;;;;1.20;1.10;;;12.50;76.10;;;;;;6359977;22;20168;-86
2023/10/19 05:01:13;;;;;;;2.33;1.87;;;12.50;76.10;;;;;;6365604;22;20503;-87
2023/10/19 05:03:42;;;;;;;1.10;1.07;;;12.50;76.00;;;;;;6364738;22;20178;-85
2023/10/19 05:06:13;;;;;;;0.70;0.70;;;12.50;76.00;;;;;;6366689;22;20370;-86
2023/10/19 05:08:42;;;;;;;1.20;1.13;;;12.50;76.00;;;;;;6363516;22;20209;-87
2023/10/19 05:11:12;;;;;;;2.67;1.23;;;12.50;76.10;;;;;;6366807;22;20196;-86
2023/10/19 05:13:47;;;;;;;1.60;1.33;;;12.50;76.10;;;;;;6365101;22;20278;-86
2023/10/19 05:16:16;;;;;;;3.03;2.67;;;12.50;76.10;;;;;;6365720;22;20163;-86
2023/10/19 05:18:45;;;;;;;1.97;1.77;;;12.50;76.10;;;;;;6365734;22;20168;-85
2023/10/19 05:21:16;;;;;;;2.00;1.90;;;12.50;76.20;;;;;;6368418;22;20204;-87
2023/10/19 05:23:45;;;;;;;2.57;2.13;;;12.50;76.20;;;;;;6366618;22;20187;-87
2023/10/19 05:26:18;;;;;;;1.87;1.57;;;12.50;76.30;;;;;;6366476;22;20636;-86
2023/10/19 05:28:47;;;;;;;1.70;1.60;;;12.50;76.40;;;;;;6365812;22;20170;-85
2023/10/19 05:31:17;;;;;;;1.37;1.27;;;12.50;76.50;;;;;;6363818;22;20197;-88
2023/10/19 05:33:48;;;;;;;7.87;3.53;;;12.60;76.60;;;;;;6362357;22;20198;-86
2023/10/19 05:36:24;;;;;;;0.90;0.87;;;12.60;76.60;;;;;;6363492;22;20591;-86
2023/10/19 05:38:53;;;;;;;3.17;1.53;;;12.60;76.60;;;;;;6366189;22;20189;-86
2023/10/19 05:41:31;;;;;;;3.07;1.43;;;12.60;76.70;;;;;;6367465;22;20616;-89
2023/10/19 05:44:02;;;;;;;4.07;1.00;;;12.60;77.50;;;;;;6364688;22;20589;-85
2023/10/19 05:46:31;;;;;;;5.63;1.90;;;12.60;76.90;;;;;;6364025;22;20183;-86
2023/10/19 05:49:06;;;;;;;2.10;1.10;;;12.60;77.10;;;;;;6364171;22;20298;-85
2023/10/19 05:51:37;;;;;;;2.77;2.10;;;12.70;77.30;;;;;;6364872;22;20199;-86
2023/10/19 05:54:08;;;;;;;1.67;1.57;;;12.70;77.20;;;;;;6363883;22;20188;-85
2023/10/19 05:56:39;;;;;;;0.87;0.87;;;12.70;77.40;;;;;;6366821;22;20612;-87
2023/10/19 06:02:47;;;;;;;3.03;2.00;;;12.80;77.20;;;;;;6361984;22;20167;-88
2023/10/19 06:34:44;;;;;;;3.70;1.80;;;13.50;77.60;;;;;;6281222;22;20200;-89
2023/10/19 06:37:25;;;;;;;2.00;1.80;;;13.60;77.50;;;;;;6365170;22;20175;-87
2023/10/19 06:40:00;;;;;;;2.07;1.97;;;13.60;77.50;;;;;;6366511;22;20212;-86
2023/10/19 06:42:29;;;;;;;5.20;1.47;;;13.70;77.50;;;;;;6368250;22;20164;-87
2023/10/19 06:45:05;;;;;;;3.43;3.13;;;13.80;77.50;;;;;;6368600;22;20239;-86
2023/10/19 06:48:00;;;;;;;2.27;1.57;;;13.80;77.40;;;;;;6365777;22;20178;-90
2023/10/19 06:50:55;;;;;;;2.03;1.87;;;13.90;77.50;;;;;;6366558;22;20201;-88
2023/10/19 06:53:41;;;;;;;2.13;1.90;;;14.00;77.50;;;;;;6363393;22;20175;-88
2023/10/19 06:56:10;;;;;;;2.87;1.70;;;14.10;77.70;;;;;;6368055;22;20167;-85
2023/10/19 06:58:46;;;;;;;1.13;1.03;;;14.20;77.70;;;;;;6368750;22;20183;-88
2023/10/19 07:01:25;;;;;;;2.30;2.07;;;14.30;77.90;;;;;;6368849;22;20512;-88
2023/10/19 07:03:56;;;;;;;5.20;2.80;;;14.40;77.80;;;;;;6367738;22;20167;-86
2023/10/19 07:06:27;;;;;;;3.33;2.40;;;14.50;77.70;;;;;;6365864;22;20167;-88
2023/10/19 07:08:56;;;;;;;1.17;0.97;;;14.60;77.80;;;;;;6366575;22;20250;-86
2023/10/19 07:11:26;;;;;;;0.50;0.50;;;14.70;77.80;;;;;;6370453;22;20203;-88
2023/10/19 07:13:54;;;;;;;6.60;1.50;;;14.80;77.80;;;;;;6366694;22;20589;-85
2023/10/19 07:16:23;;;;;;;1.47;1.07;;;14.80;78.20;;;;;;6368350;22;20164;-88
2023/10/19 07:18:52;;;;;;;0.87;0.80;;;14.90;78.50;;;;;;6387519;22;20177;-88
2023/10/19 07:21:22;;;;;;;1.40;1.17;;;15.00;78.40;;;;;;6387762;22;20228;-86
2023/10/19 07:23:53;;;;;;;1.60;1.47;;;15.10;78.50;;;;;;6390312;22;20174;-88
2023/10/19 07:26:31;;;;;;;0.50;0.50;;;15.20;78.60;;;;;;6391697;22;20163;-89
2023/10/19 07:29:16;;;;;;;2.77;1.73;;;15.30;78.50;;;;;;6384959;22;20167;-88
2023/10/19 07:31:46;;;;;;;2.27;1.03;;;15.40;78.60;;;;;;6371753;22;20210;-90
2023/10/19 07:34:16;;;;;;;0.73;0.73;;;15.50;78.30;;;;;;6369782;22;20749;-88
2023/10/19 07:36:47;;;;;;;0.30;0.30;;;15.60;78.20;;;;;;6368678;22;20529;-86
2023/10/19 07:39:25;;;;;;;2.07;0.50;;;15.60;78.00;;;;;;6368666;22;20168;-87
2023/10/19 07:42:06;;;;;;;0.97;0.70;;;15.80;78.00;;;;;;6369326;22;20234;-89
2023/10/19 07:44:41;;;;;;;0.63;0.57;;;15.80;77.90;;;;;;6369101;22;20164;-89
2023/10/19 07:47:13;;;;;;;0.83;0.83;;;15.90;77.80;;;;;;6369115;22;20170;-87
2023/10/19 07:49:43;;;;;;;5.00;1.93;;;16.00;77.70;;;;;;6367037;22;20166;-88
2023/10/19 07:52:14;;;;;;;0.40;0.40;;;16.10;77.50;;;;;;6367678;22;20260;-87
2023/10/19 07:54:45;;;;;;;1.20;0.87;;;16.20;77.40;;;;;;6367621;22;20166;-90
2023/10/19 07:57:14;;;;;;;1.20;1.10;;;16.30;77.20;;;;;;6366813;22;20164;-88
2023/10/19 07:59:43;;;;;;;1.27;0.90;;;16.30;77.10;;;;;;6368700;22;20239;-85
2023/10/19 08:02:24;;;;;;;2.57;1.20;;;16.30;76.00;;;;;;6366167;22;20166;-90
2023/10/19 08:04:57;;;;;;;2.33;0.93;;;16.50;76.30;;;;;;6366981;22;20190;-87
2023/10/19 08:07:42;;;;;;;1.57;1.47;;;16.50;76.10;;;;;;6367376;22;20575;-88
2023/10/19 08:10:17;;;;;;;0.67;0.67;;;16.50;75.60;;;;;;6365202;22;20258;-85
2023/10/19 08:12:58;;;;;;;0.43;0.43;;;16.60;75.80;;;;;;6365536;22;20175;-87
2023/10/19 08:15:36;;;;;;;0.70;0.70;;;16.70;75.60;;;;;;6367039;22;20160;-89
2023/10/19 08:18:14;;;;;;;2.43;0.90;;;16.80;75.60;;;;;;6369667;22;20247;-87
2023/10/19 08:20:50;;;;;;;0.40;0.40;;;16.90;75.20;;;;;;6367660;22;20163;-89
2023/10/19 08:23:27;;;;;;;1.60;1.40;;;16.90;74.60;;;;;;6366602;22;20227;-88
2023/10/19 08:25:59;;;;;;;0.60;0.60;;;17.00;74.40;;;;;;6366570;22;20238;-89
2023/10/19 08:28:29;;;;;;;0.50;0.50;;;17.10;74.40;;;;;;6367883;22;20163;-88
2023/10/19 08:31:00;;;;;;;1.50;1.40;;;17.20;74.50;;;;;;6367663;22;20271;-90
2023/10/19 08:33:33;;;;;;;0.60;0.60;;;17.30;74.20;;;;;;6368741;22;20227;-89
2023/10/19 08:36:03;;;;;;;1.27;0.53;;;17.30;73.90;;;;;;6368205;22;20652;-87
2023/10/19 08:38:40;;;;;;;3.77;0.67;;;17.40;73.30;;;;;;6367928;22;20190;-89
2023/10/19 08:41:10;;;;;;;1.77;1.40;;;17.40;72.80;;;;;;6369947;22;20168;-90
2023/10/19 08:43:45;;;;;;;1.77;1.67;;;17.40;72.40;;;;;;6368461;22;20163;-88
2023/10/19 08:46:14;;;;;;;1.27;1.20;;;17.50;72.90;;;;;;6367715;22;20216;-88
2023/10/19 08:48:46;;;;;;;1.03;0.93;;;17.60;72.90;;;;;;6369128;22;20597;-88
2023/10/19 08:51:19;;;;;;;0.60;0.60;;;17.60;72.30;;;;;;6367843;22;20210;-88
2023/10/19 08:53:49;;;;;;;10.47;1.60;;;17.70;72.30;;;;;;6366112;22;20190;-89
2023/10/19 08:56:27;;;;;;;1.10;0.87;;;17.70;72.20;;;;;;6367779;22;20166;-92
2023/10/19 08:58:56;;;;;;;0.90;0.90;;;17.80;71.40;;;;;;6366586;22;20390;-89
2023/10/19 09:01:29;;;;;;;0.67;0.67;;;17.90;71.80;;;;;;6366152;22;20167;-89
2023/10/19 09:04:00;;;;;;;0.83;0.73;;;18.00;71.90;;;;;;6365281;22;20674;-89
2023/10/19 09:06:30;;;;;;;0.40;0.40;;;18.00;70.80;;;;;;6366293;22;20183;-88
2023/10/19 09:09:04;;;;;;;0.40;0.40;;;18.00;70.90;;;;;;6366952;22;20159;-89
2023/10/19 09:11:37;;;;;;;0.50;0.50;;;18.10;71.00;;;;;;6368376;22;20183;-87
2023/10/19 09:14:06;;;;;;;1.37;0.93;;;18.20;71.00;;;;;;6369512;22;20176;-87
2023/10/19 09:16:38;;;;;;;1.60;1.07;;;18.20;70.10;;;;;;6369514;22;20156;-88
2023/10/19 09:19:07;;;;;;;0.70;0.70;;;18.30;70.50;;;;;;6369003;22;20219;-87
2023/10/19 09:21:36;;;;;;;0.30;0.30;;;18.40;70.40;;;;;;6368536;22;20168;-88
2023/10/19 09:24:10;;;;;;;1.50;0.80;;;18.40;70.20;;;;;;6368236;22;20162;-87
2023/10/19 09:30:18;;;;;;;0.43;0.43;;;18.60;69.60;;;;;;6267214;22;20201;-90
2023/10/19 09:32:48;;;;;;;1.07;0.97;;;18.60;68.70;;;;;;6275525;22;20787;-90
2023/10/19 09:35:19;;;;;;;0.53;0.53;;;18.70;68.60;;;;;;6276355;22;20170;-89
2023/10/19 09:37:48;;;;;;;0.73;0.73;;;18.80;68.80;;;;;;6251139;22;20162;-89
2023/10/19 09:40:17;;;;;;;2.03;0.87;;;18.80;68.90;;;;;;6272574;22;20172;-90
2023/10/19 09:42:48;;;;;;;0.47;0.47;;;18.90;68.60;;;;;;6274102;22;20168;-89
2023/10/19 09:45:21;;;;;;;0.50;0.50;;;18.90;68.20;;;;;;6273606;22;20180;-90
2023/10/19 09:47:51;;;;;;;1.13;0.90;;;19.00;68.50;;;;;;6274956;22;20168;-89
2023/10/19 09:50:21;;;;;;;2.73;1.17;;;19.10;67.90;;;;;;6275963;22;20296;-90
2023/10/19 09:52:54;;;;;;;1.53;0.90;;;19.10;67.20;;;;;;6274019;22;20197;-91
2023/10/19 09:55:35;;;;;;;0.40;0.40;;;19.10;67.20;;;;;;6271860;22;20473;-90
2023/10/19 09:58:14;;;;;;;1.10;1.03;;;19.20;67.10;;;;;;6272583;22;20180;-91
2023/10/19 10:00:46;;;;;;;1.05;0.93;;;19.30;67.10;;;;;;6274074;22;20169;-89
2023/10/19 10:03:47;;;;;;;1.33;1.17;;;19.30;66.90;;;;;;6273316;22;20166;-89
2023/10/19 10:06:53;;;;;;;0.52;0.43;;;19.40;65.70;;;;;;6274045;22;20518;-91
2023/10/19 10:09:39;;;;;;;1.20;1.10;;;19.40;65.50;;;;;;6271266;22;20169;-88
2023/10/19 10:12:18;;;;;;;0.68;0.55;;;19.40;64.40;;;;;;6272811;22;20224;-89
2023/10/19 10:14:59;;;;;;;0.30;0.30;;;19.50;65.00;;;;;;6273046;22;20165;-89
2023/10/19 10:17:34;;;;;;;0.75;0.70;;;19.60;65.20;;;;;;6273117;22;20396;-90
2023/10/19 10:20:32;;;;;;;1.25;1.02;;;19.70;65.60;;;;;;6271649;22;20169;-89
2023/10/19 10:23:24;;;;;;;0.20;0.20;;;19.70;65.80;;;;;;6272419;22;20169;-91
2023/10/19 10:25:58;;;;;;;1.58;1.23;;;19.90;66.00;;;;;;6273236;22;20240;-89
2023/10/19 10:28:28;;;;;;;1.45;1.05;;;19.90;65.20;;;;;;6258775;22;20166;-90
2023/10/19 10:31:16;;;;;;;0.20;0.20;;;20.00;64.30;;;;;;6331061;22;20198;-86
2023/10/19 10:33:54;;;;;;;1.75;0.73;;;20.20;64.30;;;;;;6333670;22;20188;-90
2023/10/19 10:36:23;;;;;;;5.35;0.82;;;20.20;61.80;;;;;;6334713;22;20221;-89
2023/10/19 10:38:52;;;;;;;0.63;0.60;;;20.30;62.20;;;;;;6332358;22;20164;-88
2023/10/19 10:41:25;;;;;;;0.40;0.40;;;20.30;61.10;;;;;;6333580;22;20168;-88
2023/10/19 10:43:55;;;;;;;0.80;0.63;;;20.40;61.60;;;;;;6334695;22;20204;-90
2023/10/19 10:46:27;;;;;;;3.20;0.95;;;20.40;61.70;;;;;;6332658;22;20168;-88
2023/10/19 10:48:59;;;;;;;1.65;1.02;;;20.50;61.40;;;;;;6332978;22;20168;-88
2023/10/19 10:51:30;;;;;;;0.65;0.65;;;20.60;61.70;;;;;;6335672;22;20237;-89
2023/10/19 10:54:01;;;;;;;0.80;0.60;;;20.70;61.10;;;;;;6335827;22;20688;-89
2023/10/19 10:56:30;;;;;;;0.55;0.50;;;20.70;60.70;;;;;;6336511;22;20187;-88
2023/10/19 10:59:13;;;;;;;0.52;0.52;;;20.80;61.10;;;;;;6332161;22;20371;-91
2023/10/19 11:01:42;;;;;;;1.42;0.85;;;20.80;59.20;;;;;;6332617;22;20485;-86
2023/10/19 11:04:15;;;;;;;1.23;0.70;;;20.90;59.60;;;;;;6333403;22;20173;-88
2023/10/19 11:06:55;;;;;;;0.70;0.70;;;21.00;60.10;;;;;;6334225;22;20778;-87
2023/10/19 11:09:25;;;;;;;0.95;0.50;;;21.00;59.40;;;;;;6334419;22;20168;-90
2023/10/19 11:12:12;;;;;;;0.43;0.43;;;21.00;57.80;;;;;;6334516;22;20161;-90
2023/10/19 11:17:17;;;;;;;0.55;0.55;;;21.10;57.90;;;;;;6301385;22;20169;-88
2023/10/19 11:19:57;;;;;;;0.38;0.38;;;21.10;58.00;;;;;;6278556;22;20638;-88
2023/10/19 11:22:27;;;;;;;1.23;0.82;;;21.20;58.30;;;;;;6305994;22;20160;-86
2023/10/19 11:25:17;;;;;;;1.40;1.30;;;21.20;57.90;;;;;;6278331;22;20165;-87
2023/10/19 11:27:46;;;;;;;0.60;0.60;;;21.20;57.30;;;;;;6302618;22;20161;-88
2023/10/19 11:30:24;;;;;;;3.28;0.85;;;21.20;57.30;;;;;;6305677;22;20172;-87
2023/10/19 11:32:56;;;;;;;1.92;1.45;;;21.40;57.30;;;;;;6304502;22;20187;-85
2023/10/19 11:35:32;;;;;;;0.20;0.20;;;21.40;57.60;;;;;;6306227;22;20167;-87
2023/10/19 11:38:02;;;;;;;1.02;1.00;;;21.50;58.10;;;;;;6305326;22;20171;-86
2023/10/19 11:40:34;;;;;;;0.63;0.63;;;21.60;57.90;;;;;;6305207;22;20165;-90
2023/10/19 11:43:03;;;;;;;2.55;0.63;;;21.60;56.10;;;;;;6304238;22;20611;-88
2023/10/19 11:45:35;;;;;;;0.22;0.22;;;21.50;55.80;;;;;;6306249;22;20175;-86
2023/10/19 11:48:03;;;;;;;0.20;0.20;;;21.50;55.80;;;;;;6305661;22;20619;-90
2023/10/19 11:50:34;;;;;;;0.30;0.30;;;21.50;55.80;;;;;;6305726;22;20169;-88
2023/10/19 11:53:05;;;;;;;0.32;0.30;;;21.50;55.80;;;;;;6304354;22;20584;-89
2023/10/19 11:55:34;;;;;;;0.80;0.80;;;21.60;56.00;;;;;;6305978;22;20211;-88
2023/10/19 11:58:03;;;;;;;0.25;0.25;;;21.60;55.90;;;;;;6304896;22;20176;-89
2023/10/19 12:00:37;;;;;;;1.15;0.45;;;21.70;56.00;;;;;;6304723;22;20195;-89
2023/10/19 12:03:06;;;;;;;0.28;0.25;;;21.80;56.40;;;;;;6277978;22;20167;-89
2023/10/19 12:05:38;;;;;;;0.30;0.30;;;21.80;55.20;;;;;;6305978;22;20165;-90
2023/10/19 12:08:07;;;;;;;0.65;0.60;;;21.90;55.80;;;;;;6303920;22;20611;-88
2023/10/19 12:10:36;;;;;;;0.80;0.80;;;22.00;55.60;;;;;;6305951;22;20165;-87
2023/10/19 12:13:08;;;;;;;0.43;0.30;;;22.00;55.50;;;;;;6304426;22;20291;-88
2023/10/19 12:15:37;;;;;;;0.30;0.30;;;21.90;54.10;;;;;;6305716;22;20189;-88
2023/10/19 12:18:08;;;;;;;0.40;0.40;;;21.90;53.00;;;;;;6304737;22;20173;-88
2023/10/19 12:20:39;;;;;;;1.65;0.85;;;21.90;53.00;;;;;;6306134;22;20165;-88
2023/10/19 12:23:09;;;;;;;3.20;0.85;;;22.00;53.20;;;;;;6306468;22;20725;-88
2023/10/19 12:25:38;;;;;;;0.52;0.52;;;22.10;53.30;;;;;;6304398;22;20244;-88
2023/10/19 12:28:25;;;;;;;0.47;0.45;;;22.20;53.70;;;;;;6304891;22;20606;-88
2023/10/19 12:30:56;;;;;;;0.25;0.25;;;22.30;53.50;;;;;;6302357;22;20245;-88
2023/10/19 12:33:26;;;;;;;0.85;0.77;;;22.30;53.90;;;;;;6303993;22;20192;-88
2023/10/19 12:35:57;;;;;;;0.20;0.20;;;22.30;52.80;;;;;;6304820;22;20176;-87
2023/10/19 12:38:27;;;;;;;0.40;0.32;;;22.30;52.00;;;;;;6305096;22;20499;-87
2023/10/19 12:40:57;;;;;;;0.20;0.20;;;22.30;52.30;;;;;;6305385;22;20165;-89
2023/10/19 12:43:26;;;;;;;0.80;0.70;;;22.30;52.00;;;;;;6294053;22;20252;-88
2023/10/19 12:45:57;;;;;;;0.30;0.30;;;22.30;51.60;;;;;;6305375;22;20169;-87
2023/10/19 12:48:30;;;;;;;0.30;0.28;;;22.50;52.10;;;;;;6292385;22;20175;-88
2023/10/19 12:51:01;;;;;;;0.57;0.57;;;22.60;52.70;;;;;;6304783;22;20161;-89
2023/10/19 12:53:33;;;;;;;0.43;0.32;;;22.80;52.40;;;;;;6305692;22;20188;-87
2023/10/19 12:56:02;;;;;;;0.40;0.40;;;22.80;51.90;;;;;;6304090;22;20477;-88
2023/10/19 12:58:32;;;;;;;0.20;0.20;;;22.80;51.90;;;;;;6305429;22;20165;-88
2023/10/19 13:01:01;;;;;;;0.40;0.20;;;22.80;51.80;;;;;;6304489;22;20169;-88
2023/10/19 13:03:32;;;;;;;0.63;0.43;;;22.70;51.00;;;;;;6302736;22;20627;-87
2023/10/19 13:06:07;;;;;;;0.20;0.20;;;22.70;51.30;;;;;;6304660;22;20165;-86
2023/10/19 13:08:38;;;;;;;0.20;0.20;;;22.80;51.70;;;;;;6304969;22;20672;-87
2023/10/19 13:11:09;;;;;;;0.63;0.50;;;22.70;51.50;;;;;;6279486;22;20247;-87
2023/10/19 13:13:47;;;;;;;4.03;0.50;;;22.70;51.50;;;;;;6303440;22;20239;-87
2023/10/19 13:16:16;;;;;;;1.95;1.33;;;22.70;51.20;;;;;;6304587;22;20200;-88
2023/10/19 13:18:45;;;;;;;0.40;0.40;;;22.60;51.00;;;;;;6304662;22;20169;-87
2023/10/19 13:21:22;;;;;;;0.90;0.57;;;22.60;51.30;;;;;;6303640;22;20200;-88
2023/10/19 13:23:51;;;;;;;0.28;0.28;;;22.60;51.80;;;;;;6303198;22;20581;-87
2023/10/19 13:26:19;;;;;;;0.22;0.20;;;22.60;52.20;;;;;;6300614;22;20414;-88
2023/10/19 13:28:52;;;;;;;0.45;0.45;;;22.70;52.30;;;;;;6274023;22;20321;-87
2023/10/19 13:31:22;;;;;;;0.50;0.50;;;22.70;51.50;;;;;;6271096;22;20169;-84
2023/10/19 13:33:52;;;;;;;2.45;0.60;;;22.70;51.30;;;;;;6302178;22;20242;-88
2023/10/19 13:36:22;;;;;;;0.40;0.40;;;22.60;51.10;;;;;;6304911;22;20732;-87
2023/10/19 13:38:51;;;;;;;5.40;0.70;;;22.60;51.60;;;;;;6276388;22;20972;-87
2023/10/19 13:41:29;;;;;;;0.52;0.52;;;22.50;51.40;;;;;;6302090;22;20243;-89
2023/10/19 13:43:59;;;;;;;0.30;0.30;;;22.40;51.00;;;;;;6276367;22;20165;-87
2023/10/19 13:46:29;;;;;;;0.50;0.50;;;22.40;51.60;;;;;;6306992;22;20199;-88
2023/10/19 13:48:58;;;;;;;11.88;0.50;;;22.40;51.80;;;;;;6279797;22;20169;-87
2023/10/19 13:51:29;;;;;;;0.30;0.30;;;22.30;51.30;;;;;;6304241;22;20757;-88
2023/10/19 13:54:01;;;;;;;0.43;0.43;;;22.20;51.40;;;;;;6303240;22;20192;-87